createdAt,value
2022-10-13T00:01:21.774Z,101051.06
2022-10-13T00:03:55.818Z,101052.38
2022-10-13T00:06:27.531Z,101047.04
2022-10-13T00:09:01.201Z,101042.79
2022-10-13T00:11:35.887Z,101046.97
2022-10-13T00:14:09.098Z,101042.10
2022-10-13T00:16:38.801Z,101040.27
2022-10-13T00:19:12.894Z,101038.20
2022-10-13T00:21:48.083Z,101035.03
2022-10-13T00:24:18.253Z,101032.33
2022-10-13T00:26:53.332Z,101030.23
2022-10-13T00:29:23.299Z,101031.63
2022-10-13T00:31:56.429Z,101033.27
2022-10-13T00:34:26.406Z,101037.28
2022-10-13T00:36:55.788Z,101033.58
2022-10-13T00:39:25.802Z,101030.34
2022-10-13T00:42:03.131Z,101025.46
2022-10-13T00:45:08.308Z,101026.80
2022-10-13T00:47:48.936Z,101030.88
2022-10-13T00:50:23.816Z,101032.55
2022-10-13T00:53:01.991Z,101030.49
2022-10-13T00:55:37.815Z,101030.09
2022-10-13T00:58:11.408Z,101030.23
2022-10-13T01:00:53.768Z,101032.77
2022-10-13T01:03:23.095Z,101035.00
2022-10-13T01:05:59.202Z,101030.09
2022-10-13T01:08:32.801Z,101026.15
2022-10-13T01:11:49.031Z,101022.72
2022-10-13T01:14:54.871Z,101017.01
2022-10-13T01:17:33.937Z,101022.26
2022-10-13T01:20:25.896Z,101021.77
2022-10-13T01:23:15.712Z,101012.05
2022-10-13T01:26:22.404Z,101010.37
2022-10-13T01:29:06.758Z,101006.19
2022-10-13T01:31:49.089Z,101004.14
2022-10-13T01:34:37.415Z,101001.80
2022-10-13T01:37:33.268Z,100999.66
2022-10-13T01:40:12.982Z,100998.13
2022-10-13T01:43:03.783Z,100996.34
2022-10-13T01:45:58.121Z,100993.88
2022-10-13T01:48:46.040Z,100987.57
2022-10-13T01:51:20.780Z,100985.30
2022-10-13T01:53:56.073Z,100981.25
2022-10-13T01:56:29.897Z,100982.70
2022-10-13T01:59:09.135Z,100981.66
2022-10-13T02:01:57.970Z,100978.39
2022-10-13T02:04:48.172Z,100973.73
2022-10-13T02:07:30.827Z,100970.45
2022-10-13T02:10:04.042Z,100973.52
2022-10-13T02:12:52.159Z,100973.30
2022-10-13T02:15:34.114Z,100968.97
2022-10-13T02:18:05.588Z,100967.39
2022-10-13T02:20:36.962Z,100967.63
2022-10-13T02:23:12.676Z,100962.20
2022-10-13T02:25:44.161Z,100967.02
2022-10-13T02:28:18.920Z,100967.37
2022-10-13T02:30:50.474Z,100965.17
2022-10-13T02:33:21.433Z,100963.80
2022-10-13T02:35:53.554Z,100964.44
2022-10-13T02:38:29.972Z,100963.46
2022-10-13T02:41:03.169Z,100961.28
2022-10-13T02:43:38.080Z,100963.11
2022-10-13T02:46:07.737Z,100963.07
2022-10-13T02:48:39.716Z,100960.07
2022-10-13T02:51:10.140Z,100958.13
2022-10-13T02:53:43.333Z,100957.72
2022-10-13T02:56:14.396Z,100954.70
2022-10-13T02:58:47.866Z,100952.16
2022-10-13T03:01:18.629Z,100944.21
2022-10-13T03:04:12.336Z,100949.62
2022-10-13T03:06:45.251Z,100954.62
2022-10-13T03:09:15.917Z,100961.29
2022-10-13T03:11:47.366Z,100959.49
2022-10-13T03:14:23.282Z,100956.58
2022-10-13T03:17:00.784Z,100952.51
2022-10-13T03:19:32.075Z,100955.52
2022-10-13T03:22:02.530Z,100953.44
2022-10-13T03:24:34.454Z,100949.52
2022-10-13T03:27:04.612Z,100951.52
2022-10-13T03:29:38.045Z,100949.20
2022-10-13T03:32:11.305Z,100951.04
2022-10-13T03:34:42.239Z,100951.08
2022-10-13T03:37:15.996Z,100957.86
2022-10-13T03:39:54.933Z,100956.45
2022-10-13T03:42:24.691Z,100956.27
2022-10-13T03:44:58.219Z,100953.23
2022-10-13T03:47:29.095Z,100954.73
2022-10-13T03:50:02.625Z,100955.41
2022-10-13T03:52:33.911Z,100953.59
2022-10-13T03:55:05.398Z,100955.05
2022-10-13T03:57:34.202Z,100957.09
2022-10-13T04:00:05.226Z,100957.96
2022-10-13T04:02:42.285Z,100955.56
2022-10-13T04:05:12.437Z,100949.71
2022-10-13T04:07:43.737Z,100952.42
2022-10-13T04:10:21.661Z,100946.65
2022-10-13T04:12:52.518Z,100941.52
2022-10-13T04:15:22.057Z,100942.68
2022-10-13T04:17:55.231Z,100942.67
2022-10-13T04:20:25.938Z,100941.04
2022-10-13T04:22:58.943Z,100939.66
2022-10-13T04:25:31.458Z,100938.08
2022-10-13T04:28:02.289Z,100940.18
2022-10-13T04:30:35.106Z,100940.05
2022-10-13T04:33:06.311Z,100938.02
2022-10-13T04:35:50.349Z,100937.98
2022-10-13T04:38:23.551Z,100934.73
2022-10-13T04:40:57.232Z,100937.30
2022-10-13T04:43:31.593Z,100935.93
2022-10-13T04:46:08.406Z,100929.95
2022-10-13T04:48:41.954Z,100922.23
2022-10-13T04:51:20.689Z,100926.66
2022-10-13T04:53:56.762Z,100934.91
2022-10-13T04:56:30.909Z,100936.57
2022-10-13T04:59:13.657Z,100937.02
2022-10-13T05:01:51.145Z,100937.53
2022-10-13T05:04:26.547Z,100932.29
2022-10-13T05:07:18.324Z,100932.61
2022-10-13T05:09:54.558Z,100929.83
2022-10-13T05:12:26.151Z,100923.98
2022-10-13T05:14:55.189Z,100918.55
2022-10-13T05:17:23.562Z,100922.92
2022-10-13T05:19:51.943Z,100923.48
2022-10-13T05:22:20.902Z,100920.58
2022-10-13T05:24:50.866Z,100916.35
2022-10-13T05:27:20.560Z,100913.77
2022-10-13T05:29:51.843Z,100918.14
2022-10-13T05:32:23.582Z,100921.14
2022-10-13T05:34:56.062Z,100923.36
2022-10-13T05:37:24.581Z,100918.91
2022-10-13T05:39:56.305Z,100918.52
2022-10-13T05:42:25.012Z,100921.70
2022-10-13T05:44:53.392Z,100920.64
2022-10-13T05:47:23.316Z,100915.33
2022-10-13T05:49:55.928Z,100912.77
2022-10-13T05:52:25.680Z,100911.30
2022-10-13T05:55:00.882Z,100915.88
2022-10-13T05:57:41.283Z,100914.79
2022-10-13T06:00:13.576Z,100913.14
2022-10-13T06:02:49.960Z,100914.14
2022-10-13T06:05:20.871Z,100912.27
2022-10-13T06:07:53.118Z,100906.32
2022-10-13T06:10:25.758Z,100909.48
2022-10-13T06:12:57.371Z,100904.44
2022-10-13T06:15:28.572Z,100904.70
2022-10-13T06:17:59.261Z,100905.98
2022-10-13T06:20:30.194Z,100910.48
2022-10-13T06:22:58.856Z,100913.78
2022-10-13T06:25:27.119Z,100915.52
2022-10-13T06:28:00.209Z,100912.07
2022-10-13T06:30:31.950Z,100907.54
2022-10-13T06:33:00.684Z,100912.05
2022-10-13T06:35:29.163Z,100907.28
2022-10-13T06:37:58.458Z,100900.83
2022-10-13T06:40:26.808Z,100895.83
2022-10-13T06:42:55.063Z,100888.30
2022-10-13T06:45:26.266Z,100884.69
2022-10-13T06:47:56.424Z,100889.75
2022-10-13T06:50:26.198Z,100888.68
2022-10-13T06:52:56.479Z,100889.14
2022-10-13T06:55:24.775Z,100890.31
2022-10-13T06:57:55.236Z,100884.53
2022-10-13T07:00:24.011Z,100888.44
2022-10-13T07:02:53.006Z,100886.08
2022-10-13T07:05:21.296Z,100888.70
2022-10-13T07:07:54.260Z,100886.20
2022-10-13T07:10:25.180Z,100886.36
2022-10-13T07:12:53.404Z,100885.30
2022-10-13T07:15:24.599Z,100886.71
2022-10-13T07:17:54.197Z,100882.81
2022-10-13T07:20:24.840Z,100881.40
2022-10-13T07:22:54.920Z,100881.73
2022-10-13T07:25:23.885Z,100880.27
2022-10-13T07:27:55.011Z,100876.90
2022-10-13T07:30:23.376Z,100879.84
2022-10-13T07:32:52.148Z,100874.02
2022-10-13T07:35:23.194Z,100876.13
2022-10-13T07:37:57.488Z,100869.65
2022-10-13T07:40:27.051Z,100872.92
2022-10-13T07:42:57.078Z,100871.13
2022-10-13T07:45:25.619Z,100869.85
2022-10-13T07:47:56.522Z,100864.08
2022-10-13T07:50:27.429Z,100864.23
2022-10-13T07:52:55.623Z,100863.33
2022-10-13T07:55:25.123Z,100857.96
2022-10-13T07:57:55.700Z,100821.03
2022-10-13T08:00:23.719Z,100854.21
2022-10-13T08:02:51.889Z,100854.67
2022-10-13T08:05:20.196Z,100852.37
2022-10-13T08:07:48.563Z,100849.33
2022-10-13T08:10:21.144Z,100843.98
2022-10-13T08:12:49.892Z,100835.86
2022-10-13T08:15:18.811Z,100844.16
2022-10-13T08:17:47.080Z,100841.52
2022-10-13T08:20:15.230Z,100840.91
2022-10-13T08:22:43.256Z,100840.34
2022-10-13T08:25:11.492Z,100832.83
2022-10-13T08:27:50.533Z,100830.02
2022-10-13T08:30:20.377Z,100834.34
2022-10-13T08:32:49.091Z,100833.74
2022-10-13T08:35:17.367Z,100832.81
2022-10-13T08:37:45.523Z,100830.85
2022-10-13T08:40:21.066Z,100828.73
2022-10-13T08:42:50.219Z,100831.89
2022-10-13T08:45:46.154Z,100832.30
2022-10-13T08:48:38.747Z,100830.81
2022-10-13T08:51:08.865Z,100826.05
2022-10-13T08:53:42.006Z,100825.61
2022-10-13T08:56:20.585Z,100820.33
2022-10-13T08:58:51.747Z,100822.73
2022-10-13T09:01:21.299Z,100821.36
2022-10-13T09:04:15.655Z,100819.50
2022-10-13T09:06:54.262Z,100823.21
2022-10-13T09:09:25.561Z,100825.78
2022-10-13T09:11:54.866Z,100818.23
2022-10-13T09:14:29.895Z,100819.17
2022-10-13T09:17:20.630Z,100820.51
2022-10-13T09:20:21.279Z,100818.16
2022-10-13T09:23:23.043Z,100814.55
2022-10-13T09:25:53.310Z,100815.94
2022-10-13T09:28:29.241Z,100815.35
2022-10-13T09:31:16.242Z,100818.37
2022-10-13T09:33:46.002Z,100811.33
2022-10-13T09:36:16.307Z,100809.52
2022-10-13T09:39:15.320Z,100806.02
2022-10-13T09:41:46.135Z,100800.26
2022-10-13T09:44:19.015Z,100800.13
2022-10-13T09:46:55.522Z,100792.42
2022-10-13T09:49:41.626Z,100794.42
2022-10-13T09:52:12.525Z,100787.16
2022-10-13T09:54:41.231Z,100785.29
2022-10-13T09:57:30.734Z,100787.20
2022-10-13T10:00:14.955Z,100783.08
2022-10-13T10:03:02.186Z,100789.02
2022-10-13T10:05:47.816Z,100789.16
2022-10-13T10:08:28.941Z,100783.94
2022-10-13T10:11:18.109Z,100779.09
2022-10-13T10:13:47.383Z,100778.10
2022-10-13T10:16:19.706Z,100774.77
2022-10-13T10:19:15.634Z,100775.31
2022-10-13T10:22:06.235Z,100767.20
2022-10-13T10:24:59.510Z,100761.97
2022-10-13T10:27:39.996Z,100757.02
2022-10-13T10:30:20.529Z,100749.67
2022-10-13T10:33:07.390Z,100749.08
2022-10-13T10:35:56.792Z,100747.51
2022-10-13T10:38:49.006Z,100742.06
2022-10-13T10:41:36.719Z,100736.90
2022-10-13T10:44:16.371Z,100732.18
2022-10-13T10:46:51.191Z,100724.63
2022-10-13T10:49:40.093Z,100724.20
2022-10-13T10:52:19.430Z,100721.33
2022-10-13T10:55:24.424Z,100717.65
2022-10-13T10:58:32.373Z,100715.59
2022-10-13T11:01:11.676Z,100712.63
2022-10-13T11:04:13.188Z,100706.44
2022-10-13T11:06:43.602Z,100704.70
2022-10-13T11:09:14.849Z,100703.26
2022-10-13T11:11:43.902Z,100701.93
2022-10-13T11:14:30.501Z,100695.80
2022-10-13T11:17:11.053Z,100695.59
2022-10-13T11:19:45.255Z,100690.48
2022-10-13T11:22:24.246Z,100684.30
2022-10-13T11:25:15.853Z,100682.80
2022-10-13T11:27:45.294Z,100673.04
2022-10-13T11:30:42.174Z,100666.20
2022-10-13T11:33:39.265Z,100659.81
2022-10-13T11:36:40.709Z,100652.00
2022-10-13T11:39:28.668Z,100646.77
2022-10-13T11:42:16.650Z,100641.81
2022-10-13T11:45:12.002Z,100639.40
2022-10-13T11:48:01.241Z,100637.96
2022-10-13T11:50:42.310Z,100636.31
2022-10-13T11:53:14.912Z,100637.27
2022-10-13T11:55:54.468Z,100633.81
2022-10-13T11:58:26.457Z,100632.38
2022-10-13T12:01:12.651Z,100627.56
2022-10-13T12:03:44.515Z,100623.48
2022-10-13T12:06:18.248Z,100620.92
2022-10-13T12:08:51.290Z,100616.48
2022-10-13T12:11:35.737Z,100610.71
2022-10-13T12:14:09.929Z,100606.85
2022-10-13T12:16:53.191Z,100609.49
2022-10-13T12:19:26.014Z,100607.54
2022-10-13T12:22:00.011Z,100607.44
2022-10-13T12:24:31.893Z,100604.34
2022-10-13T12:27:11.402Z,100601.80
2022-10-13T12:29:43.995Z,100600.99
2022-10-13T12:32:27.426Z,100599.65
2022-10-13T12:34:56.630Z,100600.05
2022-10-13T12:37:34.651Z,100592.44
2022-10-13T12:40:06.354Z,100592.83
2022-10-13T12:42:38.093Z,100592.05
2022-10-13T12:45:07.487Z,100588.79
2022-10-13T12:47:39.628Z,100590.46
2022-10-13T12:50:40.799Z,100595.96
2022-10-13T12:53:09.086Z,100596.89
2022-10-13T12:55:48.857Z,100594.20
2022-10-13T12:58:26.525Z,100596.33
2022-10-13T13:01:35.849Z,100596.20
2022-10-13T13:04:23.572Z,100595.20
2022-10-13T13:07:00.950Z,100590.40
2022-10-13T13:09:35.385Z,100589.88
2022-10-13T13:12:14.000Z,100585.55
2022-10-13T13:14:57.489Z,100580.80
2022-10-13T13:17:56.651Z,100578.58
2022-10-13T13:20:38.972Z,100573.23
2022-10-13T13:23:11.507Z,100569.29
2022-10-13T13:25:43.745Z,100566.02
2022-10-13T13:28:16.829Z,100552.35
2022-10-13T13:30:47.628Z,100562.04
2022-10-13T13:33:19.399Z,100560.66
2022-10-13T13:35:49.906Z,100558.35
2022-10-13T13:38:20.535Z,100553.00
2022-10-13T13:40:49.919Z,100550.96
2022-10-13T13:43:22.481Z,100550.78
2022-10-13T13:45:52.838Z,100548.94
2022-10-13T13:48:27.331Z,100546.94
2022-10-13T13:50:57.419Z,100540.47
2022-10-13T13:53:30.708Z,100539.64
2022-10-13T13:56:04.246Z,100537.04
2022-10-13T13:58:39.193Z,100528.84
2022-10-13T14:01:10.069Z,100535.38
2022-10-13T14:03:41.471Z,100535.98
2022-10-13T14:06:21.042Z,100538.92
2022-10-13T14:08:53.976Z,100537.92
2022-10-13T14:11:32.975Z,100541.59
2022-10-13T14:14:04.450Z,100537.80
2022-10-13T14:16:42.995Z,100535.91
2022-10-13T14:19:13.486Z,100538.59
2022-10-13T14:21:53.597Z,100536.27
2022-10-13T14:24:40.577Z,100542.55
2022-10-13T14:27:20.616Z,100537.67
2022-10-13T14:29:52.278Z,100535.79
2022-10-13T14:32:52.265Z,100535.27
2022-10-13T14:35:45.614Z,100531.04
2022-10-13T14:38:36.960Z,100525.57
2022-10-13T14:41:39.230Z,100521.50
2022-10-13T14:44:27.950Z,100521.02
2022-10-13T14:47:00.563Z,100517.68
2022-10-13T14:49:29.883Z,100518.81
2022-10-13T14:52:07.541Z,100516.60
2022-10-13T14:54:44.700Z,100515.41
2022-10-13T14:57:16.870Z,100517.26
2022-10-13T14:59:46.947Z,100514.46
2022-10-13T15:02:15.661Z,100511.00
2022-10-13T15:04:54.685Z,100508.55
2022-10-13T15:07:24.056Z,100511.34
2022-10-13T15:10:04.289Z,100513.98
2022-10-13T15:12:34.435Z,100516.16
2022-10-13T15:15:03.542Z,100509.94
2022-10-13T15:17:34.851Z,100505.30
2022-10-13T15:20:08.749Z,100510.47
2022-10-13T15:22:41.373Z,100508.91
2022-10-13T15:25:23.969Z,100507.27
2022-10-13T15:28:10.038Z,100507.15
2022-10-13T15:30:42.450Z,100505.30
2022-10-13T15:33:16.431Z,100499.92
2022-10-13T15:35:51.089Z,100502.31
2022-10-13T15:38:21.384Z,100498.27
2022-10-13T15:40:50.802Z,100499.73
2022-10-13T15:43:19.643Z,100500.08
2022-10-13T15:45:57.244Z,100501.02
2022-10-13T15:48:26.930Z,100500.48
2022-10-13T15:50:55.969Z,100497.92
2022-10-13T15:53:25.680Z,100497.77
2022-10-13T15:55:54.929Z,100494.73
2022-10-13T15:58:24.887Z,100496.60
2022-10-13T16:00:53.246Z,100496.63
2022-10-13T16:03:21.980Z,100499.59
2022-10-13T16:05:51.528Z,100500.01
2022-10-13T16:08:20.211Z,100499.45
2022-10-13T16:10:51.232Z,100496.91
2022-10-13T16:13:21.764Z,100500.52
2022-10-13T16:16:01.312Z,100499.50
2022-10-13T16:18:34.933Z,100494.10
2022-10-13T16:21:18.760Z,100500.16
2022-10-13T16:23:49.661Z,100501.21
2022-10-13T16:26:20.278Z,100501.29
2022-10-13T16:28:50.119Z,100501.20
2022-10-13T16:31:21.715Z,100499.50
2022-10-13T16:33:52.065Z,100498.67
2022-10-13T16:36:24.317Z,100494.59
2022-10-13T16:38:57.143Z,100498.61
2022-10-13T16:41:29.094Z,100496.81
2022-10-13T16:43:58.418Z,100498.44
2022-10-13T16:46:27.257Z,100498.36
2022-10-13T16:48:55.649Z,100498.67
2022-10-13T16:51:27.732Z,100500.22
2022-10-13T16:54:04.199Z,100499.02
2022-10-13T16:56:33.774Z,100499.15
2022-10-13T16:59:06.030Z,100500.89
2022-10-13T17:01:36.705Z,100492.65
2022-10-13T17:04:06.787Z,100487.97
2022-10-13T17:06:38.818Z,100491.48
2022-10-13T17:09:11.247Z,100474.98
2022-10-13T17:11:44.862Z,100491.30
2022-10-13T17:14:15.064Z,100490.92
2022-10-13T17:16:45.914Z,100489.92
2022-10-13T17:19:17.985Z,100489.67
2022-10-13T17:21:48.078Z,100485.23
2022-10-13T17:24:20.557Z,100484.00
2022-10-13T17:26:53.176Z,100486.73
2022-10-13T17:29:29.344Z,100485.70
2022-10-13T17:32:02.963Z,100484.59
2022-10-13T17:34:33.013Z,100487.25
2022-10-13T17:37:04.801Z,100484.13
2022-10-13T17:39:36.175Z,100487.38
2022-10-13T17:42:06.604Z,100486.39
2022-10-13T17:44:39.244Z,100484.98
2022-10-13T17:47:11.143Z,100478.38
2022-10-13T17:49:40.894Z,100485.42
2022-10-13T17:52:10.574Z,100492.29
2022-10-13T17:54:41.850Z,100489.08
2022-10-13T17:57:12.019Z,100486.71
2022-10-13T17:59:41.497Z,100484.88
2022-10-13T18:02:11.179Z,100482.66
2022-10-13T18:04:43.697Z,100486.30
2022-10-13T18:07:14.591Z,100486.49
2022-10-13T18:09:47.386Z,100487.05
2022-10-13T18:12:16.932Z,100484.16
2022-10-13T18:14:47.326Z,100487.59
2022-10-13T18:17:19.613Z,100493.10
2022-10-13T18:19:51.122Z,100488.56
2022-10-13T18:22:21.275Z,100488.67
2022-10-13T18:24:56.028Z,100487.27
2022-10-13T18:27:31.309Z,100487.78
2022-10-13T18:30:00.686Z,100490.13
2022-10-13T18:32:32.544Z,100494.08
2022-10-13T18:35:03.279Z,100495.73
2022-10-13T18:37:35.703Z,100495.10
2022-10-13T18:40:05.582Z,100494.23
2022-10-13T18:42:34.286Z,100496.79
2022-10-13T18:45:03.925Z,100495.45
2022-10-13T18:47:33.523Z,100496.32
2022-10-13T18:50:03.420Z,100492.30
2022-10-13T18:52:32.266Z,100487.94
2022-10-13T18:55:01.009Z,100484.08
2022-10-13T18:57:29.871Z,100483.92
2022-10-13T19:00:01.062Z,100485.84
2022-10-13T19:02:32.358Z,100490.02
2022-10-13T19:05:01.313Z,100485.10
2022-10-13T19:07:30.511Z,100486.58
2022-10-13T19:10:00.150Z,100485.91
2022-10-13T19:12:29.152Z,100480.86
2022-10-13T19:14:58.469Z,100483.01
2022-10-13T19:17:27.401Z,100485.74
2022-10-13T19:19:56.684Z,100484.80
2022-10-13T19:22:26.439Z,100487.96
2022-10-13T19:24:56.042Z,100487.97
2022-10-13T19:27:25.277Z,100490.80
2022-10-13T19:29:54.092Z,100487.63
2022-10-13T19:32:23.235Z,100488.40
2022-10-13T19:34:51.524Z,100488.47
2022-10-13T19:37:20.182Z,100487.35
2022-10-13T19:39:50.630Z,100488.20
2022-10-13T19:42:19.688Z,100487.15
2022-10-13T19:44:48.265Z,100492.02
2022-10-13T19:47:16.664Z,100490.95
2022-10-13T19:49:53.947Z,100491.96
2022-10-13T19:52:33.396Z,100490.61
2022-10-13T19:55:10.973Z,100488.36
2022-10-13T19:57:47.635Z,100487.56
2022-10-13T20:00:24.643Z,100492.20
2022-10-13T20:03:01.630Z,100487.38
2022-10-13T20:05:39.571Z,100489.19
2022-10-13T20:08:16.646Z,100487.80
2022-10-13T20:10:52.046Z,100487.58
2022-10-13T20:13:29.993Z,100492.88
2022-10-13T20:16:15.047Z,100487.36
2022-10-13T20:19:03.498Z,100493.00
2022-10-13T20:21:43.171Z,100489.02
2022-10-13T20:24:24.576Z,100492.66
2022-10-13T20:27:03.228Z,100489.95
2022-10-13T20:29:41.235Z,100487.82
2022-10-13T20:32:20.933Z,100482.83
2022-10-13T20:34:58.110Z,100479.67
2022-10-13T20:37:37.311Z,100474.55
2022-10-13T20:40:10.745Z,100467.89
2022-10-13T20:42:44.264Z,100457.56
2022-10-13T20:45:22.014Z,100448.19
2022-10-13T20:47:51.620Z,100455.30
2022-10-13T20:50:19.894Z,100463.61
2022-10-13T20:52:48.429Z,100460.57
2022-10-13T20:55:16.742Z,100456.36
2022-10-13T20:57:45.773Z,100461.48
2022-10-13T21:00:14.524Z,100462.34
2022-10-13T21:02:42.937Z,100473.42
2022-10-13T21:05:11.361Z,100474.42
2022-10-13T21:07:42.543Z,100473.77
2022-10-13T21:10:11.801Z,100479.46
2022-10-13T21:12:41.398Z,100479.10
2022-10-13T21:15:10.778Z,100474.13
2022-10-13T21:17:42.344Z,100477.53
2022-10-13T21:20:11.750Z,100474.39
2022-10-13T21:22:40.509Z,100472.17
2022-10-13T22:33:32.102Z,100439.33
2022-10-13T22:36:00.193Z,100441.08
2022-10-13T22:38:28.284Z,100433.25
2022-10-13T22:41:01.703Z,100435.59
2022-10-13T22:43:29.739Z,100435.06
2022-10-13T22:45:59.003Z,100437.07
2022-10-13T22:48:27.173Z,100430.91
2022-10-13T22:50:55.262Z,100429.23
2022-10-13T22:53:23.736Z,100432.19
2022-10-13T22:55:51.798Z,100434.98
2022-10-13T22:58:19.779Z,100435.52
2022-10-13T23:00:49.010Z,100435.48
2022-10-13T23:03:36.810Z,100438.20
2022-10-13T23:06:06.823Z,100436.64
2022-10-13T23:08:35.153Z,100433.42
2022-10-13T23:11:03.318Z,100431.14
2022-10-13T23:13:31.486Z,100434.27
2022-10-13T23:16:09.369Z,100433.66
2022-10-13T23:18:40.949Z,100431.25
2022-10-13T23:21:16.412Z,100432.79
2022-10-13T23:23:48.035Z,100429.82
2022-10-13T23:26:17.801Z,100426.33
2022-10-13T23:28:46.660Z,100427.64
2022-10-13T23:31:17.443Z,100425.35
2022-10-13T23:33:46.071Z,100425.48
2022-10-13T23:36:17.994Z,100423.38
2022-10-13T23:38:54.853Z,100422.91
2022-10-13T23:41:24.607Z,100391.58
2022-10-13T23:43:53.824Z,100419.33
2022-10-13T23:46:22.173Z,100414.61
2022-10-13T23:48:50.809Z,100410.55
2022-10-13T23:51:23.332Z,100397.10
2022-10-13T23:53:53.273Z,100407.80
2022-10-13T23:56:22.096Z,100406.27
2022-10-13T23:58:50.757Z,100410.20
